Friday, January 18, 2019, 2:38 AM EST
Back to Local

KISP, Islip Long Island Mac Art

Location: Ronkonkoma, NY, United States Lat: 40.8
Local Time: 2:38 AM EST ( 7:38 GMT) Lon: -73.1
Time Zone: US/Eastern Elev: 98 ft

Show me the last for .
Show Decoded

2019-01-18 01:56 METAR KISP 180656Z AUTO 04004KT 3SM -SN BR OVC031 M02/M04 A3019 RMK AO2 SNB07
                 SLP224 P0000 T10171039 =
2019-01-18 01:51 METAR KISP 180651Z AUTO 04005KT 3SM -SN OVC029 M02/M04 A3019 RMK AO2 SNB07 P0000
                 =
2019-01-18 00:56 METAR KISP 180556Z AUTO 07007KT 10SM FEW038 BKN049 OVC070 M01/M08 A3020 RMK AO2
                 SLP228 T10111083 11011 21033 58023 =
2019-01-17 23:56 METAR KISP 180456Z 00000KT 10SM OVC080 M02/M09 A3024 RMK SLP239 LAST T10171094
                 400061050 =
2019-01-17 22:56 METAR KISP 180356Z 00000KT 10SM OVC100 M02/M11 A3025 RMK SLP246 T10221111 =
2019-01-17 21:56 METAR KISP 180256Z 03006KT 10SM BKN130 OVC180 M03/M13 A3027 RMK SLP251 T10281128
                 58015 =
2019-01-17 20:56 METAR KISP 180156Z 02005KT 10SM OVC140 M03/M12 A3029 RMK SLP258 T10331117 =
2019-01-17 19:56 METAR KISP 180056Z 34003KT 10SM FEW130 BKN170 OVC250 M03/M12 A3031 RMK SLP264
                 T10331117 =
2019-01-17 18:56 METAR KISP 172356Z 00000KT 10SM OVC140 M02/M13 A3032 RMK SLP267 T10171128 10000
                 21022 56001 =
2019-01-17 17:56 METAR KISP 172256Z 12005KT 10SM FEW120 OVC250 M02/M12 A3032 RMK SLP268 T10171122
                 =
2019-01-17 16:56 METAR KISP 172156Z 14007KT 10SM SCT120 OVC250 M02/M15 A3030 RMK SLP263 T10171150
                 =
2019-01-17 15:56 METAR KISP 172056Z 06003KT 10SM BKN120 OVC250 M01/M17 A3032 RMK SLP268 T10111167
                 56013 =
2019-01-17 14:56 METAR KISP 171956Z 02004KT 10SM FEW150 OVC250 M01/M17 A3033 RMK SLP272 T10111167
                 =
2019-01-17 13:56 METAR KISP 171856Z 00000KT 10SM OVC250 M01/M16 A3034 RMK SLP274 T10111161 =
2019-01-17 12:56 METAR KISP 171756Z 35006KT 10SM BKN250 M01/M17 A3036 RMK SLP280 T10111167 11006
                 21050 58017 =
2019-01-17 11:56 METAR KISP 171656Z 01007KT 10SM FEW150 BKN250 M01/M16 A3039 RMK SLP290 T10111161
                 =
2019-01-17 10:56 METAR KISP 171556Z 35008KT 10SM BKN250 M02/M15 A3041 RMK SLP298 T10221150 =
2019-01-17 09:56 METAR KISP 171456Z 35012KT 10SM FEW150 BKN250 M03/M13 A3041 RMK SLP297 T10281133
                 51016 =
2019-01-17 08:56 METAR KISP 171356Z 35009KT 10SM BKN150 BKN250 M03/M11 A3039 RMK SLP294 T10331111
                 =
2019-01-17 07:56 METAR KISP 171256Z 02004KT 10SM BKN250 M04/M11 A3038 RMK SLP289 T10391106 =
2019-01-17 06:56 METAR KISP 171156Z 36005KT 10SM BKN250 M04/M11 A3036 RMK SLP282 T10441111 10000
                 21050 53023 =
2019-01-17 05:56 METAR KISP 171056Z 33006KT 10SM BKN250 M04/M12 A3033 RMK SLP272 T10441117 =

Support USWX by starting your Amazon purchase here.